Time;durP1;ratioP1;P1;durP2;ratioP2;P2;SDS_P1;SDS_P2;PMS_P1;PMS_P2;Temp;Humidity;BMP_temperature;BMP_pressure;BME280_temperature;BME280_humidity;BME280_pressure;Samples;Min_cycle;Max_cycle;Signal;HPM_P1;HPM_P2
2022/10/25 00:01:30;;;;;;;10.28;8.85;;;;;;;20.23;63.80;101960.25;1703963;82;21078;-50
2022/10/25 00:03:57;;;;;;;15.38;8.45;;;;;;;20.23;63.73;101959.37;1694355;82;21031;-51
2022/10/25 00:06:24;;;;;;;12.37;9.00;;;;;;;20.23;63.78;101952.77;1694238;82;21059;-50
2022/10/25 00:08:50;;;;;;;11.73;8.50;;;;;;;20.23;63.84;101950.12;1706579;82;21470;-49
2022/10/25 00:11:23;;;;;;;9.90;8.70;;;;;;;20.24;63.88;101951.38;1704849;82;21061;-50
2022/10/25 00:13:52;;;;;;;11.55;8.98;;;;;;;20.24;63.86;101951.83;1704167;82;21530;-50
2022/10/25 00:16:21;;;;;;;10.05;9.00;;;;;;;20.25;63.84;101952.23;1709226;82;21070;-52
2022/10/25 00:18:50;;;;;;;10.25;8.40;;;;;;;20.24;63.90;101947.86;1701603;83;21010;-49
2022/10/25 00:21:17;;;;;;;10.72;8.25;;;;;;;20.23;63.95;101943.06;1706997;82;21026;-50
2022/10/25 00:23:43;;;;;;;13.30;9.05;;;;;;;20.24;63.99;101943.90;1699821;82;21061;-52
2022/10/25 00:26:10;;;;;;;12.35;9.28;;;;;;;20.24;63.97;101933.33;1702981;82;21085;-52
2022/10/25 00:28:37;;;;;;;11.22;8.28;;;;;;;20.24;63.98;101932.00;1704229;82;21042;-49
2022/10/25 00:31:06;;;;;;;9.95;8.45;;;;;;;20.25;63.95;101936.38;1700597;82;21014;-51
2022/10/25 00:33:34;;;;;;;9.73;8.68;;;;;;;20.25;63.89;101931.09;1707158;82;21049;-53
2022/10/25 00:36:15;;;;;;;12.55;9.10;;;;;;;20.25;63.88;101937.70;1705741;82;21033;-50
2022/10/25 00:38:44;;;;;;;10.32;9.03;;;;;;;20.25;63.90;101936.38;1714821;83;21010;-52
2022/10/25 00:41:14;;;;;;;13.13;9.53;;;;;;;20.24;64.01;101938.16;1708334;82;21073;-50
2022/10/25 00:43:46;;;;;;;10.98;9.63;;;;;;;20.25;64.06;101940.34;1632161;86;21133;-52
2022/10/25 00:46:21;;;;;;;;;;;;;;;20.26;64.09;101936.77;1586626;89;21041;-53
2022/10/25 00:48:57;;;;;;;12.43;9.28;;;;;;;20.26;64.08;101930.16;1585932;89;20105;-51
2022/10/25 00:51:31;;;;;;;12.18;9.58;;;;;;;20.26;64.09;101936.77;1588523;89;21077;-51
2022/10/25 00:53:58;;;;;;;12.00;10.05;;;;;;;20.25;64.12;101929.78;1546125;92;21103;-52
2022/10/25 00:56:27;;;;;;;10.25;9.25;;;;;;;20.25;64.13;101924.48;1548757;92;21068;-56
2022/10/25 00:58:57;;;;;;;13.35;10.60;;;;;;;20.25;64.10;101921.84;1550917;92;21092;-51
2022/10/25 01:01:23;;;;;;;15.60;10.90;;;;;;;20.26;64.10;101920.91;1547349;92;21635;-50
2022/10/25 01:03:51;;;;;;;15.43;10.78;;;;;;;20.26;64.20;101922.23;1546724;92;21098;-50
2022/10/25 01:06:24;;;;;;;15.00;10.18;;;;;;;20.28;64.25;101913.77;1552671;92;21587;-50
2022/10/25 01:08:52;;;;;;;16.27;10.03;;;;;;;20.28;64.30;101908.48;1552870;92;21072;-49
2022/10/25 01:11:19;;;;;;;14.85;9.83;;;;;;;20.29;64.29;101906.25;1552189;92;21083;-50
2022/10/25 01:13:46;;;;;;;13.75;9.90;;;;;;;20.28;64.31;101906.70;1552765;92;21690;-52
2022/10/25 01:16:36;;;;;;;12.33;10.10;;;;;;;20.29;64.35;101902.28;1553740;92;21066;-51
2022/10/25 01:19:31;;;;;;;16.50;10.20;;;;;;;20.29;64.40;101895.67;1550678;92;21133;-51
2022/10/25 01:22:26;;;;;;;12.63;10.50;;;;;;;20.30;64.46;101881.52;1550305;92;21096;-50
2022/10/25 01:25:30;;;;;;;11.15;10.03;;;;;;;20.30;64.53;101881.52;1550651;92;21094;-50
2022/10/25 01:28:02;;;;;;;12.00;10.30;;;;;;;20.30;64.58;101877.55;1453546;98;21131;-50
2022/10/25 01:31:12;;;;;;;16.80;10.08;;;;;;;20.29;64.60;101871.88;1448916;98;21656;-50
2022/10/25 01:34:15;;;;;;;14.28;10.20;;;;;;;20.30;64.66;101873.59;1449916;98;21148;-50
2022/10/25 01:37:13;;;;;;;12.25;10.43;;;;;;;20.31;64.62;101872.67;1451009;98;21135;-53
2022/10/25 01:40:06;;;;;;;12.53;11.22;;;;;;;20.30;64.58;101868.30;1472849;94;21151;-50
2022/10/25 01:42:44;;;;;;;15.88;10.60;;;;;;;20.30;64.53;101864.33;1518397;94;21107;-51
2022/10/25 01:45:22;;;;;;;13.85;11.03;;;;;;;20.29;64.47;101862.64;1513777;94;21092;-53
2022/10/25 01:47:51;;;;;;;15.18;10.58;;;;;;;20.28;64.42;101857.80;1479329;96;21624;-50
2022/10/25 01:50:27;;;;;;;16.80;10.58;;;;;;;20.26;64.48;101846.89;1413154;101;21149;-51
2022/10/25 01:52:53;;;;;;;15.38;10.53;;;;;;;20.26;64.54;101842.48;1392500;103;21085;-52
2022/10/25 01:55:35;;;;;;;11.63;10.20;;;;;;;20.24;64.56;101835.08;1391611;103;21224;-50
2022/10/25 01:58:29;;;;;;;15.50;10.88;;;;;;;20.23;64.59;101841.77;1390013;102;21727;-50
2022/10/25 02:01:24;;;;;;;12.65;10.90;;;;;;;20.23;64.66;101844.41;1388362;103;21168;-53
2022/10/25 02:03:59;;;;;;;14.23;10.88;;;;;;;20.23;64.83;101841.77;1371728;102;21152;-49
2022/10/25 02:06:40;;;;;;;13.90;10.53;;;;;;;20.23;64.90;101841.77;1415691;100;21124;-53
2022/10/25 02:09:20;;;;;;;;;;;;;;;20.22;64.92;101840.03;1415623;101;21636;-49
2022/10/25 02:11:46;;;;;;;17.60;11.75;;;;;;;20.23;64.93;101845.73;1383969;103;20248;-50
2022/10/25 02:14:26;;;;;;;13.62;10.70;;;;;;;20.23;64.95;101844.41;1389765;103;21107;-54
2022/10/25 02:17:16;;;;;;;14.35;10.10;;;;;;;20.22;64.89;101846.64;1385926;103;21671;-51
2022/10/25 02:19:48;;;;;;;16.40;10.63;;;;;;;20.22;64.92;101838.70;1387559;103;21169;-51
2022/10/25 02:22:15;;;;;;;12.50;10.60;;;;;;;20.21;64.93;101831.73;1367583;104;21128;-56
2022/10/25 02:24:44;;;;;;;12.78;10.93;;;;;;;20.20;64.94;101831.31;1361313;104;21469;-50
2022/10/25 02:27:11;;;;;;;14.50;11.18;;;;;;;20.20;64.96;101828.22;1366472;104;21107;-51
2022/10/25 02:29:38;;;;;;;14.07;11.08;;;;;;;20.21;64.98;101833.05;1354437;104;21290;-50
2022/10/25 02:32:05;;;;;;;13.25;10.48;;;;;;;20.21;64.96;101832.59;1332227;107;21242;-55
2022/10/25 02:34:32;;;;;;;16.77;12.25;;;;;;;20.21;64.97;101827.76;1338631;105;21160;-50
2022/10/25 02:36:59;;;;;;;13.43;10.60;;;;;;;20.21;65.00;101827.76;1354276;105;21670;-50
2022/10/25 02:39:27;;;;;;;14.70;10.45;;;;;;;20.21;65.04;101818.52;1352966;105;21253;-50
2022/10/25 02:41:54;;;;;;;14.90;10.50;;;;;;;20.21;65.10;101827.76;1361948;105;21139;-49
2022/10/25 02:44:20;;;;;;;18.05;11.43;;;;;;;20.20;65.11;101833.95;1405542;100;21102;-49
2022/10/25 02:46:47;;;;;;;12.07;10.65;;;;;;;20.20;65.11;101837.92;1440056;98;21629;-49
2022/10/25 02:49:15;;;;;;;17.87;11.45;;;;;;;20.21;65.20;101839.20;1439801;98;21142;-51
2022/10/25 02:51:41;;;;;;;13.68;10.58;;;;;;;20.20;65.28;101834.82;1439841;99;21092;-49
2022/10/25 02:54:08;;;;;;;21.37;12.85;;;;;;;20.22;65.28;101841.35;1440002;98;21130;-52
2022/10/25 02:56:34;;;;;;;14.50;10.82;;;;;;;20.22;65.28;101843.54;1440003;100;21606;-51
2022/10/25 02:59:01;;;;;;;14.55;10.90;;;;;;;20.25;65.24;101839.91;1440098;98;21155;-50
2022/10/25 03:01:28;;;;;;;16.77;10.85;;;;;;;20.25;65.22;101846.52;1439979;98;21127;-53
2022/10/25 03:03:54;;;;;;;12.68;10.98;;;;;;;20.25;65.20;101843.87;1439744;98;21128;-55
2022/10/25 03:06:22;;;;;;;17.23;11.63;;;;;;;20.27;65.14;101845.98;1465536;96;21157;-49
2022/10/25 03:08:48;;;;;;;14.30;10.95;;;;;;;20.26;65.14;101841.61;1545501;90;21606;-51
2022/10/25 03:11:17;;;;;;;15.55;11.10;;;;;;;20.27;65.19;101840.70;1567427;91;21159;-49
2022/10/25 03:13:43;;;;;;;15.00;11.22;;;;;;;20.28;65.22;101831.83;1566960;90;21628;-52
2022/10/25 03:16:11;;;;;;;15.70;11.80;;;;;;;20.29;65.17;101834.88;1573237;89;21075;-49
2022/10/25 03:18:37;;;;;;;12.93;10.82;;;;;;;20.28;65.15;101834.47;1621984;87;21027;-51
2022/10/25 03:21:06;;;;;;;16.80;11.33;;;;;;;20.30;65.10;101833.94;1622131;87;21120;-49
2022/10/25 03:23:32;;;;;;;15.90;10.43;;;;;;;20.30;65.05;101836.58;1621957;87;21062;-51
2022/10/25 03:25:59;;;;;;;17.90;11.55;;;;;;;20.29;64.99;101836.20;1681206;82;21030;-51
2022/10/25 03:28:29;;;;;;;15.28;11.30;;;;;;;20.29;64.99;101833.56;1702350;82;21452;-49
2022/10/25 03:30:57;;;;;;;15.38;11.85;;;;;;;20.28;65.01;101830.05;1708667;82;21073;-50
2022/10/25 03:33:24;;;;;;;14.25;11.83;;;;;;;20.23;65.17;101831.19;1707575;82;21069;-51
2022/10/25 03:35:52;;;;;;;16.48;10.90;;;;;;;20.22;65.21;101830.33;1705806;82;21553;-49
2022/10/25 03:38:19;;;;;;;14.10;11.25;;;;;;;20.22;65.18;101828.14;1706697;82;21035;-52
2022/10/25 03:40:46;;;;;;;17.55;12.00;;;;;;;20.22;65.10;101824.17;1703266;83;20938;-50
2022/10/25 03:43:13;;;;;;;17.48;12.13;;;;;;;20.23;65.08;101817.98;1709813;82;21018;-51
2022/10/25 03:45:40;;;;;;;14.70;11.53;;;;;;;20.22;65.04;101817.11;1707331;82;21074;-50
2022/10/25 03:48:08;;;;;;;14.78;11.03;;;;;;;20.22;65.10;101810.50;1705333;82;21069;-51
2022/10/25 03:53:03;;;;;;;14.00;10.80;;;;;;;20.21;65.06;101806.62;1688009;84;21543;-51
2022/10/25 03:55:32;;;;;;;18.07;11.40;;;;;;;20.22;65.17;101808.31;1685260;84;21084;-54
2022/10/25 03:57:58;;;;;;;16.00;10.75;;;;;;;20.21;65.18;101806.62;1640935;86;21012;-50
2022/10/25 04:00:25;;;;;;;14.60;10.18;;;;;;;20.21;65.15;101801.33;1638398;86;21041;-50
2022/10/25 04:02:55;;;;;;;13.05;10.60;;;;;;;20.21;65.15;101801.33;1638187;86;21073;-52
2022/10/25 04:05:22;;;;;;;14.98;10.58;;;;;;;20.20;65.18;101794.31;1641175;86;21083;-50
2022/10/25 04:07:50;;;;;;;14.05;10.30;;;;;;;20.20;65.23;101797.82;1617476;88;21053;-50
2022/10/25 04:10:18;;;;;;;15.75;10.13;;;;;;;20.21;65.20;101794.73;1613262;88;21085;-52
2022/10/25 04:12:46;;;;;;;14.03;9.53;;;;;;;20.21;65.17;101796.05;1645578;86;21056;-50
2022/10/25 04:15:13;;;;;;;15.53;10.18;;;;;;;20.27;64.93;101793.13;1646316;86;21088;-51
2022/10/25 04:17:39;;;;;;;16.10;9.68;;;;;;;20.21;65.10;101796.05;1652372;86;21041;-52
2022/10/25 04:20:09;;;;;;;14.45;9.58;;;;;;;20.21;65.09;101795.59;1641483;86;21111;-50
2022/10/25 04:22:35;;;;;;;13.78;9.95;;;;;;;20.20;65.11;101793.86;1618097;88;21534;-53
2022/10/25 04:25:03;;;;;;;12.47;9.83;;;;;;;20.20;65.09;101791.67;1617247;88;21046;-51
2022/10/25 04:27:30;;;;;;;18.17;9.68;;;;;;;20.20;65.12;101783.74;1617805;88;21018;-54
2022/10/25 04:29:57;;;;;;;15.32;10.18;;;;;;;20.20;65.11;101785.93;1617019;88;21038;-54
2022/10/25 04:32:24;;;;;;;14.00;9.75;;;;;;;20.20;65.17;101785.06;1612017;88;21054;-55
2022/10/25 04:34:53;;;;;;;16.60;9.05;;;;;;;20.25;65.00;101777.80;1644499;86;21097;-51
2022/10/25 04:37:19;;;;;;;19.55;10.00;;;;;;;20.29;64.88;101776.73;1645919;86;21053;-51
2022/10/25 04:39:46;;;;;;;19.75;10.75;;;;;;;20.28;64.82;101772.36;1616496;87;21070;-53
2022/10/25 04:42:13;;;;;;;10.05;8.50;;;;;;;20.28;64.81;101771.90;1613394;88;21022;-51
2022/10/25 04:44:39;;;;;;;17.25;9.35;;;;;;;20.30;64.81;101771.82;1644498;86;21068;-50
2022/10/25 04:47:06;;;;;;;13.83;9.60;;;;;;;20.30;64.77;101761.25;1646366;86;21025;-50
2022/10/25 04:49:34;;;;;;;13.08;9.98;;;;;;;20.29;64.80;101762.19;1624904;87;21076;-52
2022/10/25 04:52:00;;;;;;;11.48;8.30;;;;;;;20.29;64.79;101752.94;1651175;87;21062;-53
2022/10/25 04:54:27;;;;;;;11.08;8.70;;;;;;;20.29;64.78;101751.63;1645426;87;21083;-50
2022/10/25 04:56:53;;;;;;;13.40;8.83;;;;;;;20.29;64.77;101751.63;1643804;87;21538;-52
2022/10/25 04:59:20;;;;;;;12.55;8.38;;;;;;;20.29;64.79;101754.27;1641697;87;21558;-50
2022/10/25 05:01:46;;;;;;;12.40;8.83;;;;;;;20.29;64.86;101754.27;1641526;87;21066;-50
2022/10/25 05:04:13;;;;;;;19.65;9.20;;;;;;;20.30;64.84;101752.48;1641243;87;21621;-50
2022/10/25 05:06:39;;;;;;;9.25;8.20;;;;;;;20.31;64.84;101754.19;1653668;84;21070;-52
2022/10/25 05:09:07;;;;;;;14.15;9.05;;;;;;;20.31;64.92;101760.34;1656865;84;21055;-51
2022/10/25 05:11:35;;;;;;;13.53;8.30;;;;;;;20.31;64.88;101755.05;1659476;84;21074;-49
2022/10/25 05:14:02;;;;;;;13.60;8.65;;;;;;;20.32;64.88;101755.42;1659112;84;21114;-50
2022/10/25 05:16:33;;;;;;;10.68;8.13;;;;;;;20.33;64.86;101758.48;1658047;84;21031;-50
2022/10/25 05:19:00;;;;;;;11.90;8.78;;;;;;;20.34;64.88;101754.89;1657101;84;21085;-50
2022/10/25 05:21:29;;;;;;;10.25;8.25;;;;;;;20.35;64.80;101759.27;1658420;86;21487;-53
2022/10/25 05:23:59;;;;;;;14.03;9.00;;;;;;;20.36;64.78;101767.58;1659320;86;21039;-50
2022/10/25 05:26:25;;;;;;;15.72;8.93;;;;;;;20.37;64.79;101767.98;1659440;84;21130;-50
2022/10/25 05:28:53;;;;;;;12.65;8.30;;;;;;;20.37;64.80;101769.30;1659095;84;21067;-50
2022/10/25 05:31:23;;;;;;;14.00;8.83;;;;;;;20.39;64.78;101768.77;1656509;84;21047;-54
2022/10/25 05:33:53;;;;;;;12.88;8.50;;;;;;;20.40;64.78;101770.50;1656616;84;21011;-50
2022/10/25 05:36:20;;;;;;;16.30;8.98;;;;;;;20.41;64.77;101770.01;1579169;90;21094;-50
2022/10/25 05:38:47;;;;;;;16.27;10.08;;;;;;;20.42;64.75;101768.64;1598198;89;21088;-50
2022/10/25 05:41:15;;;;;;;11.63;8.80;;;;;;;20.43;64.73;101765.51;1620170;88;21022;-49
2022/10/25 05:43:42;;;;;;;16.07;9.08;;;;;;;20.45;64.76;101768.48;1620568;88;21081;-50
2022/10/25 05:46:16;;;;;;;12.63;9.83;;;;;;;20.46;64.76;101772.86;1620299;88;21045;-51
2022/10/25 05:48:43;;;;;;;11.50;8.50;;;;;;;20.48;64.76;101770.13;1596298;89;21084;-51
2022/10/25 05:51:18;;;;;;;15.48;9.18;;;;;;;20.50;64.74;101775.75;1624479;88;21033;-50
2022/10/25 05:53:47;;;;;;;18.60;9.25;;;;;;;20.52;64.69;101775.21;1625762;87;21096;-50
2022/10/25 05:56:14;;;;;;;15.00;9.60;;;;;;;20.54;64.64;101781.28;1625777;88;21028;-51
2022/10/25 05:58:42;;;;;;;13.75;10.25;;;;;;;20.56;64.70;101780.75;1625535;88;21073;-49
2022/10/25 06:01:12;;;;;;;15.13;9.68;;;;;;;20.59;64.65;101785.01;1619282;88;21164;-56
2022/10/25 06:03:38;;;;;;;17.32;9.45;;;;;;;20.61;64.61;101785.34;1598782;88;21075;-50
2022/10/25 06:06:07;;;;;;;13.50;9.00;;;;;;;20.62;64.54;101784.42;1628877;87;21107;-50
2022/10/25 06:08:36;;;;;;;14.75;9.35;;;;;;;20.64;64.47;101785.21;1632518;88;21126;-52
2022/10/25 06:11:09;;;;;;;14.28;10.28;;;;;;;20.65;64.45;101786.91;1632642;88;21544;-53
2022/10/25 06:13:36;;;;;;;17.23;10.18;;;;;;;20.68;64.41;101787.23;1632907;88;21040;-53
2022/10/25 06:16:12;;;;;;;13.08;9.40;;;;;;;20.69;64.33;101787.64;1632658;88;21561;-52
2022/10/25 06:18:39;;;;;;;16.70;10.90;;;;;;;20.71;64.36;101787.11;1601353;89;21136;-52
2022/10/25 06:21:13;;;;;;;12.80;8.73;;;;;;;20.72;64.27;101787.02;1614436;89;21061;-56
2022/10/25 06:23:40;;;;;;;14.47;9.68;;;;;;;20.73;64.29;101788.72;1590477;90;21071;-54
2022/10/25 06:26:10;;;;;;;13.03;8.43;;;;;;;20.75;64.20;101788.19;1569818;91;21531;-57
2022/10/25 06:28:37;;;;;;;12.75;8.68;;;;;;;20.77;64.18;101786.33;1497545;96;21136;-55
2022/10/25 06:31:17;;;;;;;13.10;9.48;;;;;;;20.79;64.14;101787.11;1509105;95;21166;-52
2022/10/25 06:33:45;;;;;;;17.10;9.15;;;;;;;20.81;64.08;101787.06;1595598;87;21067;-51
2022/10/25 06:36:15;;;;;;;13.88;9.28;;;;;;;20.81;64.00;101786.57;1615584;87;21073;-51
2022/10/25 06:38:43;;;;;;;13.32;8.90;;;;;;;20.83;63.94;101787.38;1615892;87;21021;-50
2022/10/25 06:41:12;;;;;;;14.05;8.73;;;;;;;20.84;63.91;101781.15;1615785;87;21093;-51
2022/10/25 06:43:39;;;;;;;11.28;9.13;;;;;;;20.85;63.82;101785.52;1615719;87;21045;-52
2022/10/25 06:46:08;;;;;;;14.40;8.78;;;;;;;20.86;63.75;101783.25;1615634;87;21105;-53
2022/10/25 06:48:36;;;;;;;12.18;8.60;;;;;;;20.87;63.70;101784.98;1602693;89;21109;-49
2022/10/25 06:51:05;;;;;;;13.32;9.53;;;;;;;20.87;63.78;101778.37;1600745;89;21082;-52
2022/10/25 06:53:32;;;;;;;13.13;8.90;;;;;;;20.88;63.61;101784.03;1602061;89;21066;-51
2022/10/25 06:56:01;;;;;;;10.63;8.53;;;;;;;20.89;63.59;101777.83;1600972;89;21133;-52
2022/10/25 06:58:29;;;;;;;18.23;9.43;;;;;;;20.90;63.58;101778.66;1568641;91;21130;-52
2022/10/25 07:01:03;;;;;;;14.15;8.50;;;;;;;20.91;63.54;101779.94;1568349;91;21099;-51
2022/10/25 07:03:34;;;;;;;16.15;8.78;;;;;;;20.93;63.53;101782.50;1568138;91;21648;-52
2022/10/25 07:06:07;;;;;;;15.43;9.98;;;;;;;20.94;63.45;101777.13;1532625;91;21668;-53
2022/10/25 07:08:36;;;;;;;13.65;9.33;;;;;;;20.96;63.37;101783.66;1532585;93;21070;-57
2022/10/25 07:11:04;;;;;;;15.35;8.65;;;;;;;20.97;63.35;101775.66;1532245;93;21044;-52
2022/10/25 07:13:32;;;;;;;14.58;9.23;;;;;;;21.00;63.26;101781.25;1532155;93;21129;-55
2022/10/25 07:16:07;;;;;;;13.65;8.73;;;;;;;21.01;63.24;101775.04;1513319;93;21124;-53
2022/10/25 07:18:36;;;;;;;16.48;9.05;;;;;;;21.03;63.18;101772.75;1486170;96;21081;-54
2022/10/25 07:21:16;;;;;;;13.48;9.63;;;;;;;21.04;63.10;101773.62;1494195;96;21148;-52
2022/10/25 07:23:44;;;;;;;15.78;9.53;;;;;;;21.05;63.13;101766.91;1494129;96;21106;-57
2022/10/25 07:26:21;;;;;;;16.50;9.20;;;;;;;21.08;63.13;101767.70;1538981;92;21104;-49
2022/10/25 07:28:50;;;;;;;16.62;9.48;;;;;;;21.11;63.15;101771.50;1514105;94;21073;-52
2022/10/25 07:31:22;;;;;;;12.73;8.75;;;;;;;21.15;63.24;101763.34;1514428;94;21087;-51
2022/10/25 07:33:50;;;;;;;16.93;10.75;;;;;;;21.20;63.33;101766.63;1514109;94;21110;-53
2022/10/25 07:36:17;;;;;;;18.77;9.15;;;;;;;21.27;63.31;101769.84;1510075;95;21138;-51
2022/10/25 07:38:44;;;;;;;14.23;8.45;;;;;;;21.34;63.26;101763.28;1509980;95;21088;-58
2022/10/25 07:41:11;;;;;;;11.75;8.95;;;;;;;21.41;63.14;101766.02;1499963;95;21098;-51
2022/10/25 07:43:37;;;;;;;15.25;8.70;;;;;;;21.47;62.87;101766.58;1509962;95;21068;-52
2022/10/25 07:46:05;;;;;;;18.52;8.83;;;;;;;21.52;62.63;101757.91;1526760;94;21079;-49
2022/10/25 07:48:34;;;;;;;17.10;8.45;;;;;;;21.55;62.39;101755.12;1522904;94;21168;-56
2022/10/25 07:51:05;;;;;;;17.52;8.95;;;;;;;21.61;62.19;101759.23;1522942;94;21066;-54
2022/10/25 07:53:32;;;;;;;10.95;8.13;;;;;;;21.62;62.03;101755.63;1522806;94;21114;-51
2022/10/25 07:55:59;;;;;;;16.25;8.08;;;;;;;21.63;61.90;101755.58;1544643;92;21580;-51
2022/10/25 07:58:25;;;;;;;16.27;8.25;;;;;;;21.64;61.75;101748.46;1604445;89;21523;-50
2022/10/25 08:00:52;;;;;;;17.45;8.50;;;;;;;21.63;61.68;101744.12;1604179;89;21087;-54
2022/10/25 08:03:18;;;;;;;14.10;8.50;;;;;;;21.64;61.59;101748.46;1570108;91;21108;-51
2022/10/25 08:05:46;;;;;;;13.45;7.45;;;;;;;21.64;61.58;101745.35;1580182;90;21139;-50
2022/10/25 08:08:14;;;;;;;16.25;7.17;;;;;;;21.64;61.53;101743.16;1594923;88;21109;-50
2022/10/25 08:10:42;;;;;;;12.95;7.85;;;;;;;21.62;61.54;101731.80;1595043;88;21162;-50
2022/10/25 08:13:08;;;;;;;13.32;7.10;;;;;;;21.61;61.58;101740.69;1594870;88;21036;-52
2022/10/25 08:15:39;;;;;;;11.83;6.58;;;;;;;21.61;61.63;101732.75;1634893;84;21122;-51
2022/10/25 08:18:06;;;;;;;11.90;7.30;;;;;;;21.60;61.68;101736.31;1656273;84;21035;-50
2022/10/25 08:20:33;;;;;;;14.18;7.30;;;;;;;21.61;61.63;101739.37;1659576;84;21063;-52
2022/10/25 08:23:02;;;;;;;16.80;7.75;;;;;;;21.62;61.66;101742.39;1655230;86;21059;-49
2022/10/25 08:25:29;;;;;;;11.43;7.90;;;;;;;21.61;61.75;101738.91;1656603;84;21062;-52
2022/10/25 08:27:55;;;;;;;14.23;7.20;;;;;;;21.61;61.80;101738.05;1655807;84;21038;-57
2022/10/25 08:30:23;;;;;;;13.90;7.20;;;;;;;21.63;61.91;101738.82;1656220;84;21106;-52
2022/10/25 08:32:50;;;;;;;14.18;7.40;;;;;;;21.65;62.01;101737.81;1656743;84;21027;-50
2022/10/25 08:35:17;;;;;;;13.88;7.22;;;;;;;21.71;61.94;101731.33;1655532;84;21099;-52
2022/10/25 08:37:44;;;;;;;11.63;7.33;;;;;;;21.75;61.93;101732.88;1657700;84;21054;-50
2022/10/25 08:40:23;;;;;;;12.40;6.65;;;;;;;21.82;61.89;101729.02;1658299;86;21035;-52
2022/10/25 08:43:08;;;;;;;16.80;7.45;;;;;;;21.88;61.73;101731.34;1683210;84;21024;-52
2022/10/25 08:45:48;;;;;;;14.23;7.47;;;;;;;21.93;61.50;101727.95;1682463;84;21080;-53
2022/10/25 08:48:17;;;;;;;14.70;7.17;;;;;;;22.00;61.41;101728.48;1682807;85;21481;-51
2022/10/25 08:50:46;;;;;;;12.35;7.50;;;;;;;22.06;61.11;101727.70;1660649;85;21064;-49
2022/10/25 08:53:33;;;;;;;17.37;7.70;;;;;;;22.10;60.92;101726.59;1683174;84;21028;-54
2022/10/25 08:56:00;;;;;;;14.03;7.53;;;;;;;22.17;60.78;101727.12;1631533;86;21523;-50
2022/10/25 08:58:41;;;;;;;16.67;7.12;;;;;;;22.20;60.48;101719.84;1631204;86;21046;-51
2022/10/25 09:01:39;;;;;;;12.03;7.10;;;;;;;22.23;60.40;101718.83;1631554;87;21526;-51
2022/10/25 09:04:06;;;;;;;12.58;7.67;;;;;;;22.26;60.39;101715.53;1630800;86;21082;-53
2022/10/25 09:06:52;;;;;;;11.60;6.22;;;;;;;22.32;60.34;101713.86;1624979;87;21059;-51
2022/10/25 09:09:51;;;;;;;12.88;6.85;;;;;;;22.37;60.19;101708.31;1589224;90;21047;-49
2022/10/25 09:12:31;;;;;;;16.67;7.55;;;;;;;22.41;59.87;101713.37;1589073;89;21114;-49
2022/10/25 09:15:26;;;;;;;15.05;6.70;;;;;;;22.46;59.82;101708.64;1589109;89;21031;-50
2022/10/25 09:17:54;;;;;;;15.18;7.65;;;;;;;22.51;59.68;101709.26;1586829;90;21074;-50
2022/10/25 09:20:32;;;;;;;11.95;7.00;;;;;;;22.57;59.45;101696.97;1588982;90;21091;-51
2022/10/25 09:23:12;;;;;;;11.80;6.67;;;;;;;22.62;59.23;101698.08;1569351;90;21070;-52
2022/10/25 09:26:05;;;;;;;12.70;6.47;;;;;;;22.65;58.84;101692.12;1586331;89;21019;-50
2022/10/25 09:29:01;;;;;;;11.73;7.50;;;;;;;22.64;58.66;101689.09;1580069;91;21086;-53
2022/10/25 09:31:28;;;;;;;12.07;6.58;;;;;;;22.64;58.52;101681.60;1576981;91;21042;-51
2022/10/25 09:34:00;;;;;;;16.52;7.97;;;;;;;22.60;58.46;101692.87;1582487;91;21081;-51
2022/10/25 09:36:28;;;;;;;15.80;6.80;;;;;;;22.57;58.43;101682.38;1605108;89;21547;-51
2022/10/25 09:38:57;;;;;;;13.90;6.80;;;;;;;22.53;58.45;101688.80;1569919;90;21559;-57
2022/10/25 09:41:34;;;;;;;10.32;6.42;;;;;;;22.49;58.50;101687.27;1571615;89;21091;-51
2022/10/25 09:44:18;;;;;;;14.18;6.87;;;;;;;22.44;58.52;101684.00;1560353;91;21093;-53
2022/10/25 09:46:54;;;;;;;14.23;6.83;;;;;;;22.41;58.57;101680.22;1573844;91;21091;-58
2022/10/25 09:49:49;;;;;;;12.63;6.47;;;;;;;22.36;58.61;101671.65;1475078;97;21107;-53
2022/10/25 09:52:35;;;;;;;11.12;6.55;;;;;;;22.31;58.68;101667.09;1446212;98;21144;-50
2022/10/25 09:55:40;;;;;;;12.58;6.47;;;;;;;22.26;58.74;101670.45;1450057;99;21119;-51
2022/10/25 09:58:30;;;;;;;12.82;6.70;;;;;;;22.22;58.84;101658.31;1445385;98;21127;-51
2022/10/25 10:01:05;;;;;;;15.45;7.33;;;;;;;22.18;58.93;101664.73;1463285;96;21145;-51
2022/10/25 10:03:35;;;;;;;11.03;6.67;;;;;;;22.12;58.99;101651.81;1439158;98;21120;-54
2022/10/25 10:06:21;;;;;;;14.33;6.90;;;;;;;22.08;59.11;101652.92;1465738;96;21115;-53
2022/10/25 10:08:56;;;;;;;12.98;6.65;;;;;;;22.03;59.22;101649.66;1514197;94;21135;-53
2022/10/25 10:11:23;;;;;;;12.60;6.87;;;;;;;22.00;59.33;101641.89;1436879;99;21171;-54
2022/10/25 10:14:04;;;;;;;14.05;7.08;;;;;;;21.97;59.43;101648.67;1438208;99;21165;-51
2022/10/25 10:16:35;;;;;;;10.58;5.90;;;;;;;21.95;59.43;101643.09;1436377;99;21224;-53
2022/10/25 10:19:12;;;;;;;14.03;7.03;;;;;;;21.91;59.49;101643.71;1438325;99;21580;-50
2022/10/25 10:21:43;;;;;;;15.88;6.10;;;;;;;21.88;59.58;101639.92;1437999;99;21113;-50
2022/10/25 10:24:21;;;;;;;12.50;6.42;;;;;;;21.85;59.58;101640.07;1435232;99;21131;-52
2022/10/25 10:26:57;;;;;;;12.18;6.92;;;;;;;21.82;59.68;101631.81;1396899;102;21141;-53
2022/10/25 10:29:27;;;;;;;12.85;6.35;;;;;;;21.80;59.67;101627.53;1381975;101;21158;-53
2022/10/25 10:31:58;;;;;;;13.05;6.20;;;;;;;21.78;59.74;101630.73;1406739;101;21175;-54
2022/10/25 10:34:33;;;;;;;;;;;;;;;21.73;59.79;101623.03;1408843;102;21106;-55
2022/10/25 10:37:18;;;;;;;14.73;6.95;;;;;;;21.71;59.87;101629.34;1405071;102;20141;-51
2022/10/25 10:39:55;;;;;;;12.28;6.53;;;;;;;21.68;60.01;101626.84;1403334;102;21674;-54
2022/10/25 10:42:36;;;;;;;11.48;6.00;;;;;;;21.65;60.12;101625.23;1365683;104;21201;-50
2022/10/25 10:45:08;;;;;;;14.13;6.45;;;;;;;21.63;60.20;101619.63;1359178;99;21200;-53
2022/10/25 10:47:50;;;;;;;11.88;6.58;;;;;;;21.62;60.28;101617.90;1447915;98;21144;-51
2022/10/25 10:50:27;;;;;;;11.00;5.30;;;;;;;21.61;60.39;101618.86;1443952;98;21121;-53
2022/10/25 10:53:08;;;;;;;13.75;7.17;;;;;;;21.61;60.46;101622.37;1451513;98;21158;-55
2022/10/25 10:55:38;;;;;;;16.23;5.80;;;;;;;21.61;60.44;101608.27;1451391;98;21594;-55
2022/10/25 10:58:08;;;;;;;9.28;5.75;;;;;;;21.61;60.45;101600.31;1456388;96;21053;-52
2022/10/25 11:00:35;;;;;;;13.35;6.00;;;;;;;21.62;60.43;101603.33;1490965;96;21189;-57
2022/10/25 11:03:01;;;;;;;14.13;5.80;;;;;;;21.62;60.40;101603.33;1490921;96;21079;-51
2022/10/25 11:05:36;;;;;;;13.68;6.10;;;;;;;21.63;60.35;101612.55;1490774;96;21156;-51
2022/10/25 11:08:13;;;;;;;15.55;5.35;;;;;;;21.64;60.43;101605.43;1521146;91;21585;-57
2022/10/25 11:10:40;;;;;;;16.52;5.72;;;;;;;21.66;60.42;101604.88;1555228;91;21606;-57
2022/10/25 11:13:15;;;;;;;13.75;6.15;;;;;;;21.69;60.44;101609.56;1564305;92;21130;-51
2022/10/25 11:16:10;;;;;;;13.78;5.78;;;;;;;21.72;60.34;101600.60;1564788;92;21545;-54
2022/10/25 11:19:00;;;;;;;13.43;5.92;;;;;;;21.76;60.25;101594.20;1564884;92;21113;-51
2022/10/25 11:21:56;;;;;;;10.03;4.95;;;;;;;21.80;60.20;101590.44;1555385;92;21121;-50
2022/10/25 11:24:46;;;;;;;15.40;5.45;;;;;;;21.83;60.10;101590.28;1567567;91;21131;-51
2022/10/25 15:18:36;;;;;;;25.48;13.28;;;;;;;17.45;85.18;101459.59;1792632;79;27228;-51
2022/10/25 15:21:13;;;;;;;18.07;11.33;;;;;;;18.80;75.86;101456.13;1758899;80;21022;-52
2022/10/25 15:23:42;;;;;;;17.98;10.20;;;;;;;19.11;74.01;101457.79;1760014;80;21505;-51
2022/10/25 15:26:28;;;;;;;22.48;10.58;;;;;;;19.25;73.16;101459.32;1760635;80;21002;-51
2022/10/25 15:28:58;;;;;;;20.82;8.75;;;;;;;19.34;72.72;101465.08;1675624;83;21393;-51
2022/10/25 15:31:28;;;;;;;22.35;9.10;;;;;;;19.45;72.25;101465.41;1685609;83;21544;-50